LFBY/XDA METAR and TAF weather

Enter ICAO airport designator
Station Type Date Time Source
LFBY METAR 2019/07/20 05:30 UTC NOAA

LFBY 200530Z AUTO 00000KT 6000 // ////// 20/19 Q1015


Station Type Date Time Source
LFBY Decoded METAR 2019/07/20 05:30 UTC NOAA

Dax, France (LFBY) 43-41N 001-04W 32M
Jul 20, 2019 - 01:30 AM EDT / 2019.07.20 0530 UTC
Wind: Calm:0
Visibility: 3 mile(s):0
Temperature: 68 F (20 C)
Dew Point: 66 F (19 C)
Relative Humidity: 93%
Pressure (altimeter): 29.97 in. Hg (1015 hPa)
ob: LFBY 200530Z AUTO 00000KT 6000 // ////// 20/19 Q1015
cycle: 5

Station Type Date Time Source
LFBY TAF UTC NOAA

Error!

Example: see airport list